Time,TemperatureF,DewpointF,PressureIn,WindDirection,WindDirectionDegrees,WindSpeedMPH,WindSpeedGustMPH,Humidity,HourlyPrecipIn,Conditions,Clouds,dailyrainin,SoftwareType,DateUTC
2014-02-12 00:01:00,7.2,1.2,30.49,ENE,60,0.0,0.0,76,0.00,,,0.00,VWS V14.01,2014-02-12 05:01:00,
2014-02-12 00:02:00,7.2,1.5,30.49,ENE,60,0.0,0.0,77,0.00,,,0.00,VWS V14.01,2014-02-12 05:02:00,
2014-02-12 00:04:00,7.2,1.2,30.49,ENE,60,0.0,1.0,76,0.00,,,0.00,VWS V14.01,2014-02-12 05:04:00,
2014-02-12 00:09:00,7.2,1.5,30.49,North,5,3.0,3.0,77,0.00,,,0.00,VWS V14.01,2014-02-12 05:09:00,
2014-02-12 00:15:00,7.4,1.7,30.49,NNW,342,0.0,4.0,77,0.00,,,0.00,VWS V14.01,2014-02-12 05:15:00,
2014-02-12 00:20:00,7.5,1.8,30.48,NNW,342,0.0,4.0,77,0.00,,,0.00,VWS V14.01,2014-02-12 05:20:00,
2014-02-12 00:25:00,7.4,1.7,30.48,NNW,342,1.0,4.0,77,0.00,,,0.00,VWS V14.01,2014-02-12 05:25:00,
2014-02-12 00:30:00,7.5,1.8,30.48,WNW,300,0.0,4.0,77,0.00,,,0.00,VWS V14.01,2014-02-12 05:30:00,
2014-02-12 00:35:00,7.7,2.0,30.48,WNW,300,0.0,2.0,77,0.00,,,0.00,VWS V14.01,2014-02-12 05:35:00,
2014-02-12 00:40:00,7.5,1.5,30.48,WNW,300,0.0,2.0,76,0.00,,,0.00,VWS V14.01,2014-02-12 05:40:00,
2014-02-12 00:45:00,7.3,1.3,30.49,North,355,0.0,4.0,76,0.00,,,0.00,VWS V14.01,2014-02-12 05:45:00,
2014-02-12 00:50:00,7.1,1.4,30.49,NNE,19,3.0,4.0,77,0.00,,,0.00,VWS V14.01,2014-02-12 05:50:00,
2014-02-12 00:55:00,6.9,1.2,30.49,NNE,19,0.0,4.0,77,0.00,,,0.00,VWS V14.01,2014-02-12 05:55:00,
2014-02-12 01:00:00,6.9,1.2,30.49,NNE,19,0.0,0.0,77,0.00,,,0.00,VWS V14.01,2014-02-12 06:00:00,
2014-02-12 01:05:00,6.8,1.1,30.49,NNE,19,0.0,2.0,77,0.00,,,0.00,VWS V14.01,2014-02-12 06:05:00,
2014-02-12 01:10:00,6.6,1.2,30.49,NNE,19,0.0,2.0,78,0.00,,,0.00,VWS V14.01,2014-02-12 06:10:00,
2014-02-12 01:15:00,6.7,1.6,30.49,West,269,0.0,3.0,79,0.00,,,0.00,VWS V14.01,2014-02-12 06:15:00,
2014-02-12 01:20:00,6.9,1.5,30.49,East,96,0.0,3.0,78,0.00,,,0.00,VWS V14.01,2014-02-12 06:20:00,
2014-02-12 01:25:00,6.8,1.4,30.49,East,96,1.0,3.0,78,0.00,,,0.00,VWS V14.01,2014-02-12 06:25:00,
2014-02-12 01:31:00,6.8,1.4,30.49,East,96,0.0,0.0,78,0.00,,,0.00,VWS V14.01,2014-02-12 06:31:00,
2014-02-12 01:36:00,6.8,1.4,30.49,ENE,74,1.0,3.0,78,0.00,,,0.00,VWS V14.01,2014-02-12 06:36:00,
2014-02-12 01:41:00,6.6,1.2,30.49,ENE,74,0.0,3.0,78,0.00,,,0.00,VWS V14.01,2014-02-12 06:41:00,
2014-02-12 01:46:00,6.5,1.1,30.49,ENE,74,0.0,3.0,78,0.00,,,0.00,VWS V14.01,2014-02-12 06:46:00,
2014-02-12 01:51:00,6.3,0.9,30.49,ENE,74,0.0,3.0,78,0.00,,,0.00,VWS V14.01,2014-02-12 06:51:00,
2014-02-12 01:56:00,6.1,0.7,30.49,ENE,74,0.0,3.0,78,0.00,,,0.00,VWS V14.01,2014-02-12 06:56:00,
2014-02-12 02:01:00,5.9,0.8,30.49,ENE,74,0.0,0.0,79,0.00,,,0.00,VWS V14.01,2014-02-12 07:01:00,
2014-02-12 02:06:00,5.8,0.7,30.49,ENE,74,0.0,0.0,79,0.00,,,0.00,VWS V14.01,2014-02-12 07:06:00,
2014-02-12 02:11:00,5.5,0.4,30.49,ENE,74,0.0,0.0,79,0.00,,,0.00,VWS V14.01,2014-02-12 07:11:00,
2014-02-12 02:16:00,5.3,0.2,30.49,ENE,74,0.0,1.0,79,0.00,,,0.00,VWS V14.01,2014-02-12 07:16:00,
2014-02-12 02:21:00,5.3,0.5,30.49,NE,51,2.0,2.0,80,0.00,,,0.00,VWS V14.01,2014-02-12 07:21:00,
2014-02-12 02:26:00,5.3,0.5,30.49,NE,51,0.0,2.0,80,0.00,,,0.00,VWS V14.01,2014-02-12 07:26:00,
2014-02-12 02:31:00,5.3,0.5,30.49,NE,51,0.0,0.0,80,0.00,,,0.00,VWS V14.01,2014-02-12 07:31:00,
2014-02-12 02:36:00,5.2,0.4,30.49,NE,51,0.0,0.0,80,0.00,,,0.00,VWS V14.01,2014-02-12 07:36:00,
2014-02-12 02:41:00,5.1,0.3,30.49,NE,51,0.0,2.0,80,0.00,,,0.00,VWS V14.01,2014-02-12 07:41:00,
2014-02-12 02:46:00,5.1,0.3,30.49,ENE,61,0.0,2.0,80,0.00,,,0.00,VWS V14.01,2014-02-12 07:46:00,
2014-02-12 02:52:00,5.2,0.6,30.49,ENE,57,0.0,2.0,81,0.00,,,0.00,VWS V14.01,2014-02-12 07:52:00,
2014-02-12 02:57:00,5.2,0.6,30.49,ENE,57,0.0,2.0,81,0.00,,,0.00,VWS V14.01,2014-02-12 07:57:00,
2014-02-12 03:02:00,5.1,0.3,30.49,ENE,57,0.0,0.0,80,0.00,,,0.00,VWS V14.01,2014-02-12 08:02:00,
2014-02-12 03:07:00,5.0,0.2,30.48,ENE,57,0.0,0.0,80,0.00,,,0.00,VWS V14.01,2014-02-12 08:07:00,
2014-02-12 03:12:00,4.9,0.1,30.48,ENE,57,0.0,0.0,80,0.00,,,0.00,VWS V14.01,2014-02-12 08:12:00,
2014-02-12 03:17:00,4.7,-0.1,30.48,ENE,57,0.0,1.0,80,0.00,,,0.00,VWS V14.01,2014-02-12 08:17:00,
2014-02-12 03:22:00,4.7,0.2,30.48,ENE,57,0.0,1.0,81,0.00,,,0.00,VWS V14.01,2014-02-12 08:22:00,
2014-02-12 03:27:00,5.0,0.5,30.49,NNW,348,0.0,3.0,81,0.00,,,0.00,VWS V14.01,2014-02-12 08:27:00,
2014-02-12 03:32:00,5.0,0.2,30.49,NNW,348,1.0,1.0,80,0.00,,,0.00,VWS V14.01,2014-02-12 08:32:00,
2014-02-12 03:37:00,4.7,-0.1,30.49,NNW,348,0.0,1.0,80,0.00,,,0.00,VWS V14.01,2014-02-12 08:37:00,
2014-02-12 03:42:00,4.4,-0.4,30.50,NNW,348,1.0,2.0,80,0.00,,,0.00,VWS V14.01,2014-02-12 08:42:00,
2014-02-12 03:47:00,3.9,-0.9,30.50,NNE,15,2.0,3.0,80,0.00,,,0.00,VWS V14.01,2014-02-12 08:47:00,
2014-02-12 03:52:00,3.5,-1.0,30.50,NNE,15,0.0,3.0,81,0.00,,,0.00,VWS V14.01,2014-02-12 08:52:00,
2014-02-12 03:57:00,3.2,-1.3,30.49,NNE,15,0.0,3.0,81,0.00,,,0.00,VWS V14.01,2014-02-12 08:57:00,
2014-02-12 04:02:00,2.9,-1.3,30.49,NNE,15,2.0,2.0,82,0.00,,,0.00,VWS V14.01,2014-02-12 09:02:00,
2014-02-12 04:08:00,2.6,-1.6,30.49,NNE,15,0.0,2.0,82,0.00,,,0.00,VWS V14.01,2014-02-12 09:08:00,
2014-02-12 04:13:00,2.3,-1.9,30.50,NNE,15,0.0,2.0,82,0.00,,,0.00,VWS V14.01,2014-02-12 09:13:00,
2014-02-12 04:18:00,2.0,-2.0,30.50,NNE,15,0.0,2.0,83,0.00,,,0.00,VWS V14.01,2014-02-12 09:18:00,
2014-02-12 04:23:00,1.7,-2.3,30.51,NNE,15,0.0,2.0,83,0.00,,,0.00,VWS V14.01,2014-02-12 09:23:00,
2014-02-12 04:28:00,1.5,-2.5,30.52,NNE,15,0.0,2.0,83,0.00,,,0.00,VWS V14.01,2014-02-12 09:28:00,
2014-02-12 04:33:00,1.2,-2.5,30.52,NNE,15,1.0,2.0,84,0.00,,,0.00,VWS V14.01,2014-02-12 09:33:00,
2014-02-12 04:38:00,1.0,-2.7,30.52,NNE,15,0.0,2.0,84,0.00,,,0.00,VWS V14.01,2014-02-12 09:38:00,
2014-02-12 04:43:00,0.8,-2.9,30.52,NNE,15,0.0,2.0,84,0.00,,,0.00,VWS V14.01,2014-02-12 09:43:00,
2014-02-12 04:48:00,0.5,-2.9,30.52,NNE,15,0.0,2.0,85,0.00,,,0.00,VWS V14.01,2014-02-12 09:48:00,
2014-02-12 04:53:00,0.3,-3.1,30.51,NNE,15,0.0,2.0,85,0.00,,,0.00,VWS V14.01,2014-02-12 09:53:00,
2014-02-12 04:58:00,0.1,-3.4,30.51,NNE,19,3.0,3.0,85,0.00,,,0.00,VWS V14.01,2014-02-12 09:58:00,
2014-02-12 05:03:00,-0.1,-3.3,30.51,NE,40,2.0,3.0,86,0.00,,,0.00,VWS V14.01,2014-02-12 10:03:00,
2014-02-12 05:08:00,-0.3,-3.7,30.52,NE,40,0.0,3.0,85,0.00,,,0.00,VWS V14.01,2014-02-12 10:08:00,
2014-02-12 05:13:00,-0.5,-3.9,30.51,NE,40,0.0,3.0,85,0.00,,,0.00,VWS V14.01,2014-02-12 10:13:00,
2014-02-12 05:18:00,-0.7,-3.9,30.51,NE,38,0.0,3.0,86,0.00,,,0.00,VWS V14.01,2014-02-12 10:18:00,
2014-02-12 05:24:00,-0.9,-4.1,30.51,NE,38,1.0,3.0,86,0.00,,,0.00,VWS V14.01,2014-02-12 10:24:00,
2014-02-12 05:29:00,-1.0,-4.2,30.51,NE,38,0.0,3.0,86,0.00,,,0.00,VWS V14.01,2014-02-12 10:29:00,
2014-02-12 05:34:00,-1.2,-4.4,30.52,NE,38,0.0,0.0,86,0.00,,,0.00,VWS V14.01,2014-02-12 10:34:00,
2014-02-12 05:39:00,-1.4,-4.6,30.52,NE,38,0.0,0.0,86,0.00,,,0.00,VWS V14.01,2014-02-12 10:39:00,
2014-02-12 05:44:00,-1.7,-4.9,30.53,NE,38,0.0,0.0,86,0.00,,,0.00,VWS V14.01,2014-02-12 10:44:00,
2014-02-12 05:49:00,-1.8,-5.0,30.53,NE,38,0.0,0.0,86,0.00,,,0.00,VWS V14.01,2014-02-12 10:49:00,
2014-02-12 05:54:00,-1.9,-5.1,30.54,NE,38,0.0,0.0,86,0.00,,,0.00,VWS V14.01,2014-02-12 10:54:00,
2014-02-12 05:59:00,-2.2,-5.3,30.54,NE,38,0.0,0.0,86,0.00,,,0.00,VWS V14.01,2014-02-12 10:59:00,
2014-02-12 06:04:00,-2.2,-5.1,30.53,NE,38,2.0,3.0,87,0.00,,,0.00,VWS V14.01,2014-02-12 11:04:00,
2014-02-12 06:09:00,-2.2,-5.1,30.53,NE,38,0.0,3.0,87,0.00,,,0.00,VWS V14.01,2014-02-12 11:09:00,
2014-02-12 06:14:00,-2.6,-5.7,30.53,NE,38,2.0,3.0,86,0.00,,,0.00,VWS V14.01,2014-02-12 11:14:00,
2014-02-12 06:19:00,-2.8,-5.9,30.52,NNE,12,0.0,3.0,86,0.00,,,0.00,VWS V14.01,2014-02-12 11:19:00,
2014-02-12 06:24:00,-3.0,-6.1,30.52,NNE,12,2.0,3.0,86,0.00,,,0.00,VWS V14.01,2014-02-12 11:24:00,
2014-02-12 06:29:00,-3.0,-6.1,30.52,ENE,60,0.0,3.0,86,0.00,,,0.00,VWS V14.01,2014-02-12 11:29:00,
2014-02-12 06:34:00,-3.2,-6.3,30.52,ENE,60,0.0,0.0,86,0.00,,,0.00,VWS V14.01,2014-02-12 11:34:00,
2014-02-12 06:39:00,-3.5,-6.6,30.53,ENE,60,0.0,0.0,86,0.00,,,0.00,VWS V14.01,2014-02-12 11:39:00,
2014-02-12 06:44:00,-3.7,-6.8,30.53,ENE,60,0.0,0.0,86,0.00,,,0.00,VWS V14.01,2014-02-12 11:44:00,
2014-02-12 06:50:00,-3.9,-7.0,30.52,ENE,60,0.0,2.0,86,0.00,,,0.00,VWS V14.01,2014-02-12 11:50:00,
2014-02-12 06:55:00,-4.0,-7.1,30.52,North,5,1.0,3.0,86,0.00,,,0.00,VWS V14.01,2014-02-12 11:55:00,
2014-02-12 07:00:00,-4.0,-6.9,30.52,NE,46,1.0,3.0,87,0.00,,,0.00,VWS V14.01,2014-02-12 12:00:00,
2014-02-12 07:05:00,-3.9,-6.8,30.52,NE,46,0.0,3.0,87,0.00,,,0.00,VWS V14.01,2014-02-12 12:05:00,
2014-02-12 07:10:00,-4.1,-7.0,30.52,NE,35,1.0,3.0,87,0.00,,,0.00,VWS V14.01,2014-02-12 12:10:00,
2014-02-12 07:15:00,-4.2,-7.3,30.52,NE,36,0.0,3.0,86,0.00,,,0.00,VWS V14.01,2014-02-12 12:15:00,
2014-02-12 07:20:00,-4.3,-7.4,30.53,NE,36,1.0,3.0,86,0.00,,,0.00,VWS V14.01,2014-02-12 12:20:00,
2014-02-12 07:25:00,-4.0,-6.9,30.53,NE,36,2.0,3.0,87,0.00,,,0.00,VWS V14.01,2014-02-12 12:25:00,
2014-02-12 07:30:00,-4.0,-6.9,30.53,NE,36,0.0,0.0,87,0.00,,,0.00,VWS V14.01,2014-02-12 12:30:00,
2014-02-12 07:35:00,-4.2,-7.3,30.53,NE,36,0.0,1.0,86,0.00,,,0.00,VWS V14.01,2014-02-12 12:35:00,
2014-02-12 07:40:00,-4.2,-7.3,30.54,NE,36,1.0,1.0,86,0.00,,,0.00,VWS V14.01,2014-02-12 12:40:00,
2014-02-12 07:45:00,-4.0,-6.9,30.54,NE,36,0.0,3.0,87,0.00,,,0.00,VWS V14.01,2014-02-12 12:45:00,
2014-02-12 07:50:00,-4.0,-6.9,30.54,NE,36,0.0,3.0,87,0.00,,,0.00,VWS V14.01,2014-02-12 12:50:00,
2014-02-12 07:55:00,-3.9,-7.0,30.55,NE,36,0.0,3.0,86,0.00,,,0.00,VWS V14.01,2014-02-12 12:55:00,
2014-02-12 08:00:00,-3.6,-6.5,30.55,NE,36,0.0,0.0,87,0.00,,,0.00,VWS V14.01,2014-02-12 13:00:00,
2014-02-12 08:05:00,-3.1,-6.0,30.56,NE,36,0.0,2.0,87,0.00,,,0.00,VWS V14.01,2014-02-12 13:05:00,
2014-02-12 08:10:00,-2.0,-4.7,30.55,NE,36,1.0,3.0,88,0.00,,,0.00,VWS V14.01,2014-02-12 13:10:00,
2014-02-12 08:16:00,-0.6,-3.1,30.55,NE,36,1.0,3.0,89,0.00,,,0.00,VWS V14.01,2014-02-12 13:16:00,
2014-02-12 08:21:00,1.0,-1.5,30.55,NE,36,1.0,3.0,89,0.00,,,0.00,VWS V14.01,2014-02-12 13:21:00,
2014-02-12 08:26:00,2.1,-0.4,30.55,NE,36,0.0,3.0,89,0.00,,,0.00,VWS V14.01,2014-02-12 13:26:00,
2014-02-12 08:31:00,3.1,0.1,30.55,NE,36,0.0,0.0,87,0.00,,,0.00,VWS V14.01,2014-02-12 13:31:00,
2014-02-12 08:36:00,4.4,1.1,30.55,NE,36,0.0,0.0,86,0.00,,,0.00,VWS V14.01,2014-02-12 13:36:00,
2014-02-12 08:41:00,5.7,1.9,30.55,NE,36,0.0,2.0,84,0.00,,,0.00,VWS V14.01,2014-02-12 13:41:00,
2014-02-12 08:46:00,6.7,2.6,30.55,NNE,32,2.0,2.0,83,0.00,,,0.00,VWS V14.01,2014-02-12 13:46:00,
2014-02-12 08:51:00,7.6,2.7,30.56,NNE,32,0.0,2.0,80,0.00,,,0.00,VWS V14.01,2014-02-12 13:51:00,
2014-02-12 08:56:00,8.6,3.2,30.56,SW,229,2.0,4.0,78,0.00,,,0.00,VWS V14.01,2014-02-12 13:56:00,
2014-02-12 09:01:00,9.6,3.8,30.56,SW,228,0.0,0.0,77,0.00,,,0.00,VWS V14.01,2014-02-12 14:01:00,
2014-02-12 09:06:00,11.0,4.6,30.56,SW,228,0.0,1.0,75,0.00,,,0.00,VWS V14.01,2014-02-12 14:06:00,
2014-02-12 09:11:00,12.1,5.1,30.57,SW,228,0.0,2.0,73,0.00,,,0.00,VWS V14.01,2014-02-12 14:11:00,
2014-02-12 09:16:00,13.0,5.1,30.57,SW,228,0.0,2.0,70,0.00,,,0.00,VWS V14.01,2014-02-12 14:16:00,
2014-02-12 09:21:00,14.0,4.8,30.56,SW,215,0.0,2.0,66,0.00,,,0.00,VWS V14.01,2014-02-12 14:21:00,
2014-02-12 09:26:00,14.5,4.6,30.57,SW,225,2.0,5.0,64,0.00,,,0.00,VWS V14.01,2014-02-12 14:26:00,
2014-02-12 09:31:00,14.9,4.6,30.57,SE,140,0.0,4.0,63,0.00,,,0.00,VWS V14.01,2014-02-12 14:31:00,
2014-02-12 09:36:00,14.9,3.9,30.57,SSW,207,2.0,4.0,61,0.00,,,0.00,VWS V14.01,2014-02-12 14:36:00,
2014-02-12 09:42:00,15.1,4.1,30.57,SSW,207,0.0,4.0,61,0.00,,,0.00,VWS V14.01,2014-02-12 14:42:00,
2014-02-12 09:47:00,15.6,4.2,30.56,SSW,207,0.0,4.0,60,0.00,,,0.00,VWS V14.01,2014-02-12 14:47:00,
2014-02-12 09:52:00,15.9,3.8,30.55,SSW,207,0.0,4.0,58,0.00,,,0.00,VWS V14.01,2014-02-12 14:52:00,
2014-02-12 09:57:00,16.5,4.3,30.56,SSW,207,0.0,4.0,58,0.00,,,0.00,VWS V14.01,2014-02-12 14:57:00,
2014-02-12 10:02:00,17.2,4.2,30.55,ESE,108,0.0,1.0,56,0.00,,,0.00,VWS V14.01,2014-02-12 15:02:00,
2014-02-12 10:07:00,17.7,4.3,30.55,NNW,343,2.0,3.0,55,0.00,,,0.00,VWS V14.01,2014-02-12 15:07:00,
2014-02-12 10:12:00,18.1,3.9,30.55,NW,315,0.0,3.0,53,0.00,,,0.00,VWS V14.01,2014-02-12 15:12:00,
2014-02-12 10:17:00,18.6,4.3,30.55,NW,315,0.0,3.0,53,0.00,,,0.00,VWS V14.01,2014-02-12 15:17:00,
2014-02-12 10:22:00,19.0,3.4,30.55,NNW,341,2.0,3.0,50,0.00,,,0.00,VWS V14.01,2014-02-12 15:22:00,
2014-02-12 10:27:00,19.2,3.2,30.55,NNW,340,0.0,3.0,49,0.00,,,0.00,VWS V14.01,2014-02-12 15:27:00,
2014-02-12 10:32:00,19.7,4.1,30.54,NNW,340,2.0,2.0,50,0.00,,,0.00,VWS V14.01,2014-02-12 15:32:00,
2014-02-12 10:37:00,20.1,4.0,30.54,NNW,338,2.0,3.0,49,0.00,,,0.00,VWS V14.01,2014-02-12 15:37:00,
2014-02-12 10:42:00,20.4,3.4,30.53,East,91,0.0,5.0,47,0.00,,,0.00,VWS V14.01,2014-02-12 15:42:00,
2014-02-12 10:47:00,20.7,3.2,30.53,East,80,0.0,5.0,46,0.00,,,0.00,VWS V14.01,2014-02-12 15:47:00,
2014-02-12 10:52:00,21.1,3.1,30.53,NW,319,1.0,5.0,45,0.00,,,0.00,VWS V14.01,2014-02-12 15:52:00,
2014-02-12 10:57:00,21.3,2.3,30.53,WNW,285,2.0,5.0,43,0.00,,,0.00,VWS V14.01,2014-02-12 15:57:00,
2014-02-12 11:03:00,21.2,2.7,30.52,East,80,3.0,4.0,44,0.00,,,0.00,VWS V14.01,2014-02-12 16:03:00,
2014-02-12 11:06:00,21.3,2.3,30.53,East,80,0.0,4.0,43,0.00,,,0.00,VWS V14.01,2014-02-12 16:06:00,
2014-02-12 11:11:00,21.7,2.7,30.53,NNW,346,2.0,4.0,43,0.00,,,0.00,VWS V14.01,2014-02-12 16:11:00,
2014-02-12 11:16:00,22.2,2.6,30.54,NNW,338,0.0,5.0,42,0.00,,,0.00,VWS V14.01,2014-02-12 16:16:00,
2014-02-12 11:21:00,22.9,2.7,30.53,NNW,331,2.0,5.0,41,0.00,,,0.00,VWS V14.01,2014-02-12 16:21:00,
2014-02-12 11:26:00,23.3,2.0,30.53,East,101,1.0,5.0,39,0.00,,,0.00,VWS V14.01,2014-02-12 16:26:00,
2014-02-12 11:31:00,23.3,1.5,30.53,NNE,22,0.0,1.0,38,0.00,,,0.00,VWS V14.01,2014-02-12 16:31:00,
2014-02-12 11:36:00,23.4,2.7,30.53,NNE,22,0.0,2.0,40,0.00,,,0.00,VWS V14.01,2014-02-12 16:36:00,
2014-02-12 11:41:00,23.9,2.6,30.54,ENE,67,0.0,3.0,39,0.00,,,0.00,VWS V14.01,2014-02-12 16:41:00,
2014-02-12 11:46:00,24.3,2.4,30.54,NE,36,2.0,4.0,38,0.00,,,0.00,VWS V14.01,2014-02-12 16:46:00,
2014-02-12 11:51:00,24.1,1.6,30.53,NNE,24,0.0,4.0,37,0.00,,,0.00,VWS V14.01,2014-02-12 16:51:00,
2014-02-12 11:56:00,24.4,3.0,30.53,NW,314,0.0,4.0,39,0.01,,,0.01,VWS V14.01,2014-02-12 16:56:00,
2014-02-12 12:01:00,24.8,2.2,30.53,NNW,332,0.0,2.0,37,0.01,,,0.01,VWS V14.01,2014-02-12 17:01:00,
2014-02-12 12:06:00,25.1,2.5,30.53,NNW,332,0.0,2.0,37,0.01,,,0.01,VWS V14.01,2014-02-12 17:06:00,
2014-02-12 12:12:00,25.2,0.8,30.53,SE,137,2.0,7.0,34,0.01,,,0.01,VWS V14.01,2014-02-12 17:12:00,
2014-02-12 12:17:00,25.1,1.3,30.53,SW,221,0.0,7.0,35,0.01,,,0.01,VWS V14.01,2014-02-12 17:17:00,
2014-02-12 12:22:00,25.1,0.7,30.53,SSW,192,4.0,7.0,34,0.01,,,0.01,VWS V14.01,2014-02-12 17:22:00,
2014-02-12 12:27:00,24.8,0.4,30.53,West,261,1.0,7.0,34,0.01,,,0.01,VWS V14.01,2014-02-12 17:27:00,
2014-02-12 12:32:00,25.1,0.7,30.53,NW,323,3.0,4.0,34,0.01,,,0.01,VWS V14.01,2014-02-12 17:32:00,
2014-02-12 12:37:00,25.2,1.4,30.53,South,169,5.0,5.0,35,0.01,,,0.01,VWS V14.01,2014-02-12 17:37:00,
2014-02-12 12:42:00,25.5,1.7,30.53,ESE,121,1.0,6.0,35,0.01,,,0.01,VWS V14.01,2014-02-12 17:42:00,
2014-02-12 12:47:00,25.7,1.2,30.52,South,170,1.0,6.0,34,0.02,,,0.02,VWS V14.01,2014-02-12 17:47:00,
2014-02-12 12:52:00,25.6,2.4,30.51,SSE,158,0.0,6.0,36,0.02,,,0.02,VWS V14.01,2014-02-12 17:52:00,
2014-02-12 12:57:00,25.6,2.4,30.51,WSW,238,4.0,6.0,36,0.02,,,0.02,VWS V14.01,2014-02-12 17:57:00,
2014-02-12 13:02:00,25.4,2.8,30.51,SW,221,1.0,2.0,37,0.01,,,0.02,VWS V14.01,2014-02-12 18:02:00,
2014-02-12 13:07:00,25.6,3.5,30.51,SW,226,1.0,4.0,38,0.01,,,0.02,VWS V14.01,2014-02-12 18:07:00,
2014-02-12 13:12:00,25.7,3.0,30.51,SW,222,1.0,4.0,37,0.01,,,0.02,VWS V14.01,2014-02-12 18:12:00,
2014-02-12 13:17:00,25.7,2.5,30.50,SW,220,0.0,4.0,36,0.01,,,0.02,VWS V14.01,2014-02-12 18:17:00,
2014-02-12 13:22:00,25.9,3.2,30.50,SSW,204,0.0,4.0,37,0.01,,,0.02,VWS V14.01,2014-02-12 18:22:00,
2014-02-12 13:27:00,26.2,2.3,30.49,SW,219,5.0,5.0,35,0.01,,,0.02,VWS V14.01,2014-02-12 18:27:00,
2014-02-12 13:33:00,26.0,1.5,30.49,East,94,4.0,4.0,34,0.01,,,0.02,VWS V14.01,2014-02-12 18:33:00,
2014-02-12 13:38:00,25.8,1.9,30.49,SE,145,0.0,6.0,35,0.01,,,0.02,VWS V14.01,2014-02-12 18:38:00,
2014-02-12 13:43:00,26.0,2.1,30.49,SE,145,2.0,6.0,35,0.01,,,0.02,VWS V14.01,2014-02-12 18:43:00,
2014-02-12 13:48:00,26.2,2.3,30.48,SE,145,2.0,6.0,35,0.01,,,0.02,VWS V14.01,2014-02-12 18:48:00,
2014-02-12 13:53:00,26.3,1.8,30.48,SSW,194,3.0,6.0,34,0.01,,,0.02,VWS V14.01,2014-02-12 18:53:00,
2014-02-12 13:58:00,26.2,1.0,30.48,SSE,161,0.0,6.0,33,0.01,,,0.02,VWS V14.01,2014-02-12 18:58:00,
2014-02-12 14:03:00,26.3,1.1,30.47,East,97,0.0,4.0,33,0.00,,,0.02,VWS V14.01,2014-02-12 19:03:00,
2014-02-12 14:08:00,26.7,2.1,30.47,East,97,0.0,4.0,34,0.00,,,0.02,VWS V14.01,2014-02-12 19:08:00,
2014-02-12 14:13:00,26.8,1.6,30.47,East,90,0.0,5.0,33,0.00,,,0.02,VWS V14.01,2014-02-12 19:13:00,
2014-02-12 14:18:00,26.5,1.3,30.47,ENE,77,0.0,5.0,33,0.00,,,0.02,VWS V14.01,2014-02-12 19:18:00,
2014-02-12 14:23:00,26.4,0.6,30.46,ENE,61,2.0,5.0,32,0.00,,,0.02,VWS V14.01,2014-02-12 19:23:00,
2014-02-12 14:28:00,26.4,1.2,30.46,ESE,107,1.0,5.0,33,0.00,,,0.02,VWS V14.01,2014-02-12 19:28:00,
2014-02-12 14:33:00,26.4,0.6,30.46,East,84,0.0,2.0,32,0.00,,,0.02,VWS V14.01,2014-02-12 19:33:00,
2014-02-12 14:38:00,26.4,-0.1,30.47,SW,217,0.0,3.0,31,0.00,,,0.02,VWS V14.01,2014-02-12 19:38:00,
2014-02-12 14:43:00,26.4,0.6,30.46,East,86,0.0,5.0,32,0.01,,,0.03,VWS V14.01,2014-02-12 19:43:00,
2014-02-12 14:48:00,26.1,0.9,30.46,East,82,0.0,7.0,33,0.01,,,0.03,VWS V14.01,2014-02-12 19:48:00,
2014-02-12 14:54:00,26.0,1.5,30.46,SSE,154,2.0,7.0,34,0.01,,,0.03,VWS V14.01,2014-02-12 19:54:00,
2014-02-12 14:59:00,26.0,1.5,30.46,NNW,335,0.0,7.0,34,0.01,,,0.03,VWS V14.01,2014-02-12 19:59:00,
2014-02-12 15:04:00,25.8,0.7,30.46,NE,55,3.0,5.0,33,0.01,,,0.03,VWS V14.01,2014-02-12 20:04:00,
2014-02-12 15:09:00,25.6,0.5,30.46,North,11,2.0,5.0,33,0.01,,,0.03,VWS V14.01,2014-02-12 20:09:00,
2014-02-12 15:14:00,25.3,0.9,30.46,SW,222,3.0,5.0,34,0.01,,,0.03,VWS V14.01,2014-02-12 20:14:00,
2014-02-12 15:19:00,25.2,0.8,30.46,East,95,2.0,5.0,34,0.01,,,0.03,VWS V14.01,2014-02-12 20:19:00,
2014-02-12 15:24:00,25.1,0.1,30.46,SSW,198,3.0,5.0,33,0.01,,,0.03,VWS V14.01,2014-02-12 20:24:00,
2014-02-12 15:29:00,25.0,-0.7,30.46,ENE,59,3.0,5.0,32,0.01,,,0.03,VWS V14.01,2014-02-12 20:29:00,
2014-02-12 15:34:00,24.8,-0.9,30.46,NE,53,2.0,7.0,32,0.01,,,0.03,VWS V14.01,2014-02-12 20:34:00,
2014-02-12 15:39:00,24.7,0.3,30.46,ESE,108,0.0,7.0,34,0.01,,,0.03,VWS V14.01,2014-02-12 20:39:00,
2014-02-12 15:44:00,24.5,-0.5,30.46,ESE,117,4.0,7.0,33,0.01,,,0.03,VWS V14.01,2014-02-12 20:44:00,
2014-02-12 15:49:00,24.5,0.8,30.46,ESE,115,1.0,7.0,35,0.01,,,0.03,VWS V14.01,2014-02-12 20:49:00,
2014-02-12 15:54:00,24.5,1.4,30.46,SE,135,1.0,7.0,36,0.01,,,0.03,VWS V14.01,2014-02-12 20:54:00,
2014-02-12 15:59:00,24.5,0.8,30.46,SE,138,0.0,7.0,35,0.01,,,0.03,VWS V14.01,2014-02-12 20:59:00,
2014-02-12 16:04:00,24.4,0.7,30.47,WSW,244,1.0,5.0,35,0.00,,,0.03,VWS V14.01,2014-02-12 21:04:00,
2014-02-12 16:09:00,24.3,0.6,30.46,SW,228,1.0,5.0,35,0.00,,,0.03,VWS V14.01,2014-02-12 21:09:00,
2014-02-12 16:15:00,24.2,-0.1,30.47,ESE,112,1.0,5.0,34,0.00,,,0.03,VWS V14.01,2014-02-12 21:15:00,
2014-02-12 16:20:00,24.0,0.9,30.47,SSW,200,0.0,5.0,36,0.00,,,0.03,VWS V14.01,2014-02-12 21:20:00,
2014-02-12 16:25:00,23.9,0.8,30.47,SE,133,0.0,5.0,36,0.00,,,0.03,VWS V14.01,2014-02-12 21:25:00,
2014-02-12 16:30:00,23.8,1.3,30.46,SSE,153,0.0,5.0,37,0.00,,,0.03,VWS V14.01,2014-02-12 21:30:00,
2014-02-12 16:35:00,23.7,1.2,30.46,SSE,161,2.0,5.0,37,0.00,,,0.03,VWS V14.01,2014-02-12 21:35:00,
2014-02-12 16:40:00,23.5,0.5,30.45,SE,127,0.0,5.0,36,0.00,,,0.03,VWS V14.01,2014-02-12 21:40:00,
2014-02-12 16:45:00,23.3,0.3,30.45,ESE,112,0.0,5.0,36,0.00,,,0.03,VWS V14.01,2014-02-12 21:45:00,
2014-02-12 16:50:00,23.1,0.1,30.46,SSE,154,0.0,5.0,36,0.00,,,0.03,VWS V14.01,2014-02-12 21:50:00,
2014-02-12 16:55:00,22.9,1.1,30.46,SSE,154,0.0,5.0,38,0.00,,,0.03,VWS V14.01,2014-02-12 21:55:00,
2014-02-12 17:00:00,22.7,-0.2,30.46,SSE,163,0.0,0.0,36,0.00,,,0.03,VWS V14.01,2014-02-12 22:00:00,
2014-02-12 17:05:00,22.5,-0.4,30.46,SSE,163,0.0,0.0,36,0.00,,,0.03,VWS V14.01,2014-02-12 22:05:00,
2014-02-12 17:10:00,22.2,0.5,30.46,SSE,163,0.0,1.0,38,0.00,,,0.03,VWS V14.01,2014-02-12 22:10:00,
2014-02-12 17:15:00,21.8,1.2,30.46,SSE,163,0.0,1.0,40,0.00,,,0.03,VWS V14.01,2014-02-12 22:15:00,
2014-02-12 17:20:00,21.5,-0.2,30.46,South,169,0.0,2.0,38,0.00,,,0.03,VWS V14.01,2014-02-12 22:20:00,
2014-02-12 17:25:00,21.3,0.2,30.46,South,169,0.0,2.0,39,0.00,,,0.03,VWS V14.01,2014-02-12 22:25:00,
2014-02-12 17:30:00,20.9,0.4,30.47,South,169,0.0,0.0,40,0.00,,,0.03,VWS V14.01,2014-02-12 22:30:00,
2014-02-12 17:35:00,20.6,1.2,30.47,South,169,0.0,0.0,42,0.00,,,0.03,VWS V14.01,2014-02-12 22:35:00,
2014-02-12 17:41:00,20.1,0.7,30.47,SSE,168,0.0,0.0,42,0.00,,,0.03,VWS V14.01,2014-02-12 22:41:00,
2014-02-12 17:46:00,19.6,1.7,30.46,South,169,0.0,1.0,45,0.00,,,0.03,VWS V14.01,2014-02-12 22:46:00,
2014-02-12 17:51:00,19.2,2.3,30.46,South,169,0.0,1.0,47,0.00,,,0.03,VWS V14.01,2014-02-12 22:51:00,
2014-02-12 17:56:00,19.0,3.0,30.47,South,169,0.0,1.0,49,0.00,,,0.03,VWS V14.01,2014-02-12 22:56:00,
2014-02-12 18:01:00,18.6,3.5,30.46,South,169,0.0,1.0,51,0.00,,,0.03,VWS V14.01,2014-02-12 23:01:00,
2014-02-12 18:06:00,18.1,3.0,30.47,SSW,202,2.0,3.0,51,0.00,,,0.03,VWS V14.01,2014-02-12 23:06:00,
2014-02-12 18:11:00,18.0,2.5,30.46,SSW,208,0.0,3.0,50,0.00,,,0.03,VWS V14.01,2014-02-12 23:11:00,
2014-02-12 18:16:00,18.0,2.5,30.47,SSW,204,0.0,3.0,50,0.00,,,0.03,VWS V14.01,2014-02-12 23:16:00,
2014-02-12 18:21:00,18.1,3.0,30.46,South,180,0.0,3.0,51,0.00,,,0.03,VWS V14.01,2014-02-12 23:21:00,
2014-02-12 18:26:00,18.0,3.8,30.46,SSW,205,0.0,3.0,53,0.00,,,0.03,VWS V14.01,2014-02-12 23:26:00,
2014-02-12 18:31:00,18.0,5.3,30.45,East,100,0.0,0.0,57,0.00,,,0.03,VWS V14.01,2014-02-12 23:31:00,
2014-02-12 18:36:00,18.0,6.1,30.45,East,100,0.0,2.0,59,0.00,,,0.03,VWS V14.01,2014-02-12 23:36:00,
2014-02-12 18:41:00,17.9,7.1,30.45,East,100,0.0,2.0,62,0.00,,,0.03,VWS V14.01,2014-02-12 23:41:00,
2014-02-12 18:46:00,17.8,7.0,30.45,East,100,0.0,2.0,62,0.00,,,0.03,VWS V14.01,2014-02-12 23:46:00,
2014-02-12 18:51:00,17.6,7.5,30.45,East,100,0.0,2.0,64,0.00,,,0.03,VWS V14.01,2014-02-12 23:51:00,
2014-02-12 18:57:00,17.3,7.6,30.45,East,100,0.0,2.0,65,0.00,,,0.03,VWS V14.01,2014-02-12 23:57:00,
2014-02-12 19:02:00,17.2,8.5,30.44,East,100,0.0,0.0,68,0.00,,,0.03,VWS V14.01,2014-02-13 00:02:00,
2014-02-12 19:07:00,17.1,8.7,30.44,East,100,0.0,0.0,69,0.00,,,0.03,VWS V14.01,2014-02-13 00:07:00,
2014-02-12 19:12:00,16.9,8.5,30.44,East,100,0.0,0.0,69,0.00,,,0.03,VWS V14.01,2014-02-13 00:12:00,
2014-02-12 19:17:00,16.6,10.4,30.44,East,100,0.0,0.0,76,0.00,,,0.03,VWS V14.01,2014-02-13 00:17:00,
2014-02-12 19:22:00,16.4,8.7,30.44,East,100,0.0,0.0,71,0.00,,,0.03,VWS V14.01,2014-02-13 00:22:00,
2014-02-12 19:27:00,16.3,9.2,30.44,East,100,0.0,0.0,73,0.00,,,0.03,VWS V14.01,2014-02-13 00:27:00,
2014-02-12 19:32:00,16.3,9.5,30.44,East,100,0.0,0.0,74,0.00,,,0.03,VWS V14.01,2014-02-13 00:32:00,
2014-02-12 19:37:00,16.3,9.8,30.44,East,100,2.0,2.0,75,0.00,,,0.03,VWS V14.01,2014-02-13 00:37:00,
2014-02-12 19:42:00,16.1,9.3,30.44,East,100,0.0,2.0,74,0.00,,,0.03,VWS V14.01,2014-02-13 00:42:00,
2014-02-12 19:47:00,15.8,8.7,30.43,East,100,0.0,2.0,73,0.00,,,0.03,VWS V14.01,2014-02-13 00:47:00,
2014-02-12 19:52:00,15.5,8.7,30.43,East,100,1.0,2.0,74,0.00,,,0.03,VWS V14.01,2014-02-13 00:52:00,
2014-02-12 19:57:00,15.4,8.9,30.42,East,100,1.0,2.0,75,0.00,,,0.03,VWS V14.01,2014-02-13 00:57:00,
2014-02-12 20:02:00,15.2,8.7,30.42,East,100,0.0,1.0,75,0.00,,,0.03,VWS V14.01,2014-02-13 01:02:00,
2014-02-12 20:07:00,15.0,8.8,30.43,East,100,0.0,1.0,76,0.00,,,0.03,VWS V14.01,2014-02-13 01:07:00,
2014-02-12 20:12:00,14.9,9.0,30.43,East,100,1.0,1.0,77,0.00,,,0.03,VWS V14.01,2014-02-13 01:12:00,
2014-02-12 20:18:00,14.9,9.3,30.43,East,100,2.0,2.0,78,0.00,,,0.03,VWS V14.01,2014-02-13 01:18:00,
2014-02-12 20:23:00,14.7,9.1,30.42,East,100,1.0,4.0,78,0.00,,,0.03,VWS V14.01,2014-02-13 01:23:00,
2014-02-12 20:28:00,14.5,8.9,30.42,East,100,1.0,4.0,78,0.00,,,0.03,VWS V14.01,2014-02-13 01:28:00,
2014-02-12 20:33:00,14.4,8.8,30.42,East,100,0.0,1.0,78,0.00,,,0.03,VWS V14.01,2014-02-13 01:33:00,
2014-02-12 20:38:00,14.3,8.7,30.43,East,100,0.0,1.0,78,0.00,,,0.03,VWS V14.01,2014-02-13 01:38:00,
2014-02-12 20:43:00,14.4,8.8,30.42,East,99,0.0,2.0,78,0.00,,,0.03,VWS V14.01,2014-02-13 01:43:00,
2014-02-12 20:48:00,14.5,9.2,30.42,East,99,1.0,2.0,79,0.00,,,0.03,VWS V14.01,2014-02-13 01:48:00,
2014-02-12 20:53:00,14.5,9.2,30.42,East,99,1.0,2.0,79,0.00,,,0.03,VWS V14.01,2014-02-13 01:53:00,
2014-02-12 20:58:00,14.5,9.2,30.42,East,99,1.0,2.0,79,0.00,,,0.03,VWS V14.01,2014-02-13 01:58:00,
2014-02-12 21:03:00,14.4,9.4,30.42,East,99,0.0,1.0,80,0.00,,,0.03,VWS V14.01,2014-02-13 02:03:00,
2014-02-12 21:08:00,14.4,9.4,30.41,East,99,1.0,2.0,80,0.00,,,0.03,VWS V14.01,2014-02-13 02:08:00,
2014-02-12 21:13:00,14.5,9.7,30.41,East,99,1.0,2.0,81,0.00,,,0.03,VWS V14.01,2014-02-13 02:13:00,
2014-02-12 21:18:00,14.5,9.7,30.41,East,99,1.0,2.0,81,0.00,,,0.03,VWS V14.01,2014-02-13 02:18:00,
2014-02-12 21:23:00,14.6,9.6,30.41,East,99,2.0,2.0,80,0.00,,,0.03,VWS V14.01,2014-02-13 02:23:00,
2014-02-12 21:28:00,14.7,9.7,30.41,East,99,2.0,2.0,80,0.00,,,0.03,VWS V14.01,2014-02-13 02:28:00,
2014-02-12 21:33:00,14.7,9.7,30.40,East,98,2.0,2.0,80,0.00,,,0.03,VWS V14.01,2014-02-13 02:33:00,
2014-02-12 21:39:00,14.7,9.9,30.40,East,98,2.0,2.0,81,0.00,,,0.03,VWS V14.01,2014-02-13 02:39:00,
2014-02-12 21:44:00,14.7,9.9,30.40,East,98,2.0,2.0,81,0.00,,,0.03,VWS V14.01,2014-02-13 02:44:00,
2014-02-12 21:49:00,14.8,10.0,30.40,East,98,0.0,2.0,81,0.00,,,0.03,VWS V14.01,2014-02-13 02:49:00,
2014-02-12 21:54:00,14.8,10.0,30.40,East,98,1.0,2.0,81,0.00,,,0.03,VWS V14.01,2014-02-13 02:54:00,
2014-02-12 21:59:00,15.0,10.5,30.39,East,98,2.0,2.0,82,0.00,,,0.03,VWS V14.01,2014-02-13 02:59:00,
2014-02-12 22:04:00,15.2,11.0,30.39,East,98,2.0,4.0,83,0.00,,,0.03,VWS V14.01,2014-02-13 03:04:00,
2014-02-12 22:09:00,15.4,11.2,30.39,East,86,1.0,4.0,83,0.00,,,0.03,VWS V14.01,2014-02-13 03:09:00,
2014-02-12 22:14:00,15.5,11.3,30.38,NE,46,1.0,4.0,83,0.00,,,0.03,VWS V14.01,2014-02-13 03:14:00,
2014-02-12 22:19:00,15.7,11.5,30.38,NE,46,2.0,4.0,83,0.00,,,0.03,VWS V14.01,2014-02-13 03:19:00,
2014-02-12 22:24:00,15.7,11.5,30.37,NE,46,1.0,4.0,83,0.00,,,0.03,VWS V14.01,2014-02-13 03:24:00,
2014-02-12 22:29:00,15.8,11.6,30.37,NE,46,1.0,4.0,83,0.00,,,0.03,VWS V14.01,2014-02-13 03:29:00,
2014-02-12 22:34:00,15.9,11.7,30.37,NE,46,2.0,2.0,83,0.00,,,0.03,VWS V14.01,2014-02-13 03:34:00,
2014-02-12 22:39:00,16.1,12.1,30.37,NE,46,2.0,2.0,84,0.00,,,0.03,VWS V14.01,2014-02-13 03:39:00,
2014-02-12 22:44:00,16.3,12.3,30.36,NE,46,1.0,3.0,84,0.00,,,0.03,VWS V14.01,2014-02-13 03:44:00,
2014-02-12 22:49:00,16.4,12.4,30.36,NE,46,0.0,3.0,84,0.00,,,0.03,VWS V14.01,2014-02-13 03:49:00,
2014-02-12 22:54:00,16.6,12.6,30.36,NE,46,1.0,3.0,84,0.00,,,0.03,VWS V14.01,2014-02-13 03:54:00,
2014-02-12 23:00:00,16.8,13.1,30.36,NE,46,0.0,3.0,85,0.00,,,0.03,VWS V14.01,2014-02-13 04:00:00,
2014-02-12 23:05:00,17.0,13.3,30.36,NE,46,2.0,3.0,85,0.00,,,0.03,VWS V14.01,2014-02-13 04:05:00,
2014-02-12 23:10:00,17.2,13.5,30.35,NE,46,2.0,3.0,85,0.00,,,0.03,VWS V14.01,2014-02-13 04:10:00,
2014-02-12 23:15:00,17.3,13.6,30.34,NE,46,0.0,3.0,85,0.00,,,0.03,VWS V14.01,2014-02-13 04:15:00,
2014-02-12 23:20:00,17.5,13.8,30.34,NE,46,0.0,3.0,85,0.00,,,0.03,VWS V14.01,2014-02-13 04:20:00,
2014-02-12 23:25:00,17.6,13.9,30.34,NE,46,1.0,3.0,85,0.00,,,0.03,VWS V14.01,2014-02-13 04:25:00,
2014-02-12 23:30:00,17.7,14.0,30.34,NE,46,2.0,3.0,85,0.00,,,0.03,VWS V14.01,2014-02-13 04:30:00,
2014-02-12 23:35:00,17.9,14.2,30.34,NE,46,0.0,2.0,85,0.00,,,0.03,VWS V14.01,2014-02-13 04:35:00,
2014-02-12 23:40:00,17.9,14.2,30.33,NE,46,0.0,3.0,85,0.00,,,0.03,VWS V14.01,2014-02-13 04:40:00,
2014-02-12 23:45:00,18.0,14.3,30.33,NE,46,0.0,3.0,85,0.00,,,0.03,VWS V14.01,2014-02-13 04:45:00,
2014-02-12 23:50:00,18.1,14.4,30.33,NE,46,0.0,3.0,85,0.00,,,0.03,VWS V14.01,2014-02-13 04:50:00,
2014-02-12 23:55:00,18.2,14.7,30.33,NE,46,0.0,3.0,86,0.00,,,0.03,VWS V14.01,2014-02-13 04:55:00,